Home PIREPS Pireps

Flight BEL573

  • Submitted By: Serge Morabito
  • Departure Airport: Bruxelles National (EBBR)
  • Arrival Airport: Fiumicino International Airport (LIRF)
  • Aircraft: A320-214 (OO-SNB)
  • Flight Time: 02.02
  • Date Submitted: 23/10/2016
  • Route: ROUSY UT27 GTQ UQ343 BEGAR UL15 RIPUS UN850 ODINA UM727 EKPAL UQ705 XIBIL
  • Status: Accepted
Flight Details
Gross Revenue:
(135 load / € 0.00 per unit
€ 0.00
Fuel Cost:
(4619 fuel used @ 0 / unit)
€ 0.00

Additional Log Information:

View Log

Aircraft Used in flight is A320 neo (v2.7b1-2) Brussels Airlines
12:21 Brakes are On
12:21 Brakes are Released
12:22 Brakes are On
12:22 Brakes are Released
12:24 Brakes are On
12:24 Brakes are Released
12:24 You Took off @ 160 Knots and Flaps at Position 3
Departure Weather
EBBR 230950Z 05003KT 1100 R25L/1500N R25R/1900N R01/1600N BR SCT001 BKN002 04/04 Q1013 BECMG 3000 BR BKN005rn
12:25 Landing Gear Up @ 180 Knots and 330 Feet
12:26 Below 10000 feet you are not allowed to go over 250 knots
12:27 You exceeded maximum bank angle
12:28 Above FL100 you need to switch of the landing lights
13:57 Landing Gear Down @ 146 Knots and 2670 Feet
14:00 Brakes are On
14:00 You Landed @ 131 Knots and with -150 Vertical Speed
Arrival Weather
LIRF 231120Z 13011KT 9999 FEW025 BKN030 21/15 Q1016 NOSIGrn
14:01 Brakes are Released
14:01 Brakes are On
14:01 Brakes are Released
14:07 Brakes are On
14:07 Brakes are Released
14:09 Brakes are On
14:22 Brussels Bel-Track1.0.1.2

Route Map

Corporate About Us Our Team Vacancies Information Fleet Route Network Rules and Regulations Operations Flight Schedules Event Center Tours Partners IVAO Vatsim Acars dev FSCB

fb Users Online Belgium John Smits,
1 Pilot(s) and 116 Guest(s) Online
CMS by phpVMS - Design by Crazycreatives.com - Copyright © 2019 - Brussels Airlines Virtual